Time;durP1;ratioP1;P1;durP2;ratioP2;P2;SDS_P1;SDS_P2;PMS_P1;PMS_P2;Temp;Humidity;BMP_temperature;BMP_pressure;BME280_temperature;BME280_humidity;BME280_pressure;Samples;Min_cycle;Max_cycle;Signal;HPM_P1;HPM_P2
2021/04/24 00:01:18;;;;;;;;;;;7.00;64.80;;;;;;5041440;28;19916;-89
2021/04/24 00:03:44;;;;;;;;;;;7.00;64.90;;;;;;5040716;28;19913;-87
2021/04/24 00:06:10;;;;;;;;;;;7.00;64.70;;;;;;5043824;28;20354;-88
2021/04/24 00:08:37;;;;;;;;;;;7.00;64.80;;;;;;5044346;28;19952;-86
2021/04/24 00:11:02;;;;;;;;;;;6.90;64.70;;;;;;5046620;28;19913;-88
2021/04/24 00:13:28;;;;;;;;;;;6.90;64.70;;;;;;5044286;28;19913;-88
2021/04/24 00:15:53;;;;;;;;;;;6.90;64.70;;;;;;5039292;28;19927;-88
2021/04/24 00:18:19;;;;;;;;;;;6.90;64.80;;;;;;5050572;28;19923;-87
2021/04/24 00:20:44;;;;;;;;;;;6.90;65.00;;;;;;5050149;28;20379;-88
2021/04/24 00:23:10;;;;;;;;;;;6.90;65.30;;;;;;5047566;28;19912;-87
2021/04/24 00:25:36;;;;;;;;;;;6.90;65.30;;;;;;5045587;28;19913;-87
2021/04/24 00:28:01;;;;;;;;;;;6.90;65.20;;;;;;5034026;28;19919;-88
2021/04/24 00:30:27;;;;;;;;;;;6.90;65.20;;;;;;5049807;28;20351;-89
2021/04/24 00:32:53;;;;;;;;;;;6.90;65.40;;;;;;5051361;28;19909;-88
2021/04/24 00:35:18;;;;;;;;;;;6.90;65.70;;;;;;5043781;28;19921;-88
2021/04/24 00:37:44;;;;;;;;;;;6.80;65.80;;;;;;5050566;28;19920;-87
2021/04/24 00:40:10;;;;;;;;;;;6.80;66.00;;;;;;5050183;28;19927;-88
2021/04/24 00:42:36;;;;;;;;;;;6.80;66.00;;;;;;5052748;28;19912;-87
2021/04/24 00:45:03;;;;;;;;;;;6.90;65.70;;;;;;5042437;28;19913;-87
2021/04/24 00:47:29;;;;;;;;;;;6.90;65.40;;;;;;5052597;28;19913;-88
2021/04/24 00:49:54;;;;;;;;;;;6.90;65.20;;;;;;5054240;28;20124;-89
2021/04/24 00:52:20;;;;;;;;;;;6.90;65.20;;;;;;5055309;28;19921;-90
2021/04/24 00:54:45;;;;;;;;;;;6.90;65.10;;;;;;5050743;28;20011;-89
2021/04/24 00:57:11;;;;;;;;;;;6.90;65.10;;;;;;5055903;28;19913;-90
2021/04/24 00:59:37;;;;;;;;;;;6.90;65.10;;;;;;5055562;28;19958;-90
2021/04/24 01:02:03;;;;;;;;;;;6.90;65.60;;;;;;5050983;28;19936;-90
2021/04/24 01:04:29;;;;;;;;;;;6.90;65.40;;;;;;5050993;28;19963;-88
2021/04/24 01:06:54;;;;;;;;;;;6.90;65.30;;;;;;5053766;28;19979;-87
2021/04/24 01:09:20;;;;;;;;;;;6.90;65.20;;;;;;5046168;28;20008;-89
2021/04/24 01:11:45;;;;;;;;;;;6.90;65.30;;;;;;5050755;28;19912;-87
2021/04/24 01:14:11;;;;;;;;;;;6.80;65.50;;;;;;5052838;28;19912;-87
2021/04/24 01:16:36;;;;;;;;;;;6.80;65.50;;;;;;5051602;28;20391;-88
2021/04/24 01:19:02;;;;;;;;;;;6.80;66.10;;;;;;5051525;28;19917;-87
2021/04/24 01:21:28;;;;;;;;;;;6.70;65.90;;;;;;5053814;28;19916;-88
2021/04/24 01:23:54;;;;;;;;;;;6.70;66.20;;;;;;5053571;28;20299;-86
2021/04/24 01:26:19;;;;;;;;;;;6.70;66.10;;;;;;5052844;28;19916;-86
2021/04/24 01:28:46;;;;;;;;;;;6.70;67.00;;;;;;5051479;28;20322;-87
2021/04/24 01:31:12;;;;;;;;;;;6.60;66.60;;;;;;5052226;28;20416;-87
2021/04/24 01:33:37;;;;;;;;;;;6.60;66.70;;;;;;5053012;28;19921;-88
2021/04/24 01:36:03;;;;;;;;;;;6.60;66.60;;;;;;5053000;28;19990;-87
2021/04/24 01:38:29;;;;;;;;;;;6.60;66.70;;;;;;5052873;28;20013;-88
2021/04/24 01:40:54;;;;;;;;;;;6.60;67.20;;;;;;5052239;28;20003;-85
2021/04/24 01:43:19;;;;;;;;;;;6.60;66.90;;;;;;5046253;28;19912;-86
2021/04/24 01:45:45;;;;;;;;;;;6.60;66.80;;;;;;5051802;28;19917;-87
2021/04/24 01:48:11;;;;;;;;;;;6.60;66.70;;;;;;5049733;28;19909;-85
2021/04/24 01:50:37;;;;;;;;;;;6.60;66.90;;;;;;5038988;28;19999;-86
2021/04/24 01:53:04;;;;;;;;;;;6.50;66.90;;;;;;5050608;28;20217;-86
2021/04/24 01:55:31;;;;;;;;;;;6.50;67.00;;;;;;5052662;28;19921;-86
2021/04/24 01:57:57;;;;;;;;;;;6.50;67.20;;;;;;5051070;28;19909;-86
2021/04/24 02:00:30;;;;;;;;;;;6.50;67.10;;;;;;5048283;28;20011;-86
2021/04/24 02:02:57;;;;;;;;;;;6.50;67.10;;;;;;5052191;28;19924;-87
2021/04/24 02:05:23;;;;;;;;;;;6.50;66.90;;;;;;5051673;28;20000;-87
2021/04/24 02:07:59;;;;;;;;;;;6.50;66.90;;;;;;5048735;28;19912;-87
2021/04/24 02:10:26;;;;;;;;;;;6.40;66.90;;;;;;5051258;28;19913;-86
2021/04/24 02:12:51;;;;;;;;;;;6.40;67.30;;;;;;5052430;28;19913;-87
2021/04/24 02:15:17;;;;;;;;;;;6.30;67.40;;;;;;5051165;28;19920;-87
2021/04/24 02:17:43;;;;;;;;;;;6.40;67.30;;;;;;5052928;28;19912;-87
2021/04/24 02:20:08;;;;;;;;;;;6.30;67.90;;;;;;5045780;28;19964;-88
2021/04/24 02:22:34;;;;;;;;;;;6.30;68.40;;;;;;5052445;28;19913;-88
2021/04/24 02:25:00;;;;;;;;;;;6.30;68.30;;;;;;5051479;28;19921;-87
2021/04/24 02:27:27;;;;;;;;;;;6.30;68.40;;;;;;5050254;28;19917;-86
2021/04/24 02:29:54;;;;;;;;;;;6.30;68.10;;;;;;5047254;28;19931;-88
2021/04/24 02:32:21;;;;;;;;;;;6.30;67.90;;;;;;5047712;28;20011;-87
2021/04/24 02:34:47;;;;;;;;;;;6.30;67.70;;;;;;5041343;28;19920;-87
2021/04/24 02:37:13;;;;;;;;;;;6.40;67.60;;;;;;5051607;28;20295;-87
2021/04/24 02:39:39;;;;;;;;;;;6.40;67.50;;;;;;5051445;28;19920;-88
2021/04/24 02:42:06;;;;;;;;;;;6.40;68.30;;;;;;5047964;28;19913;-88
2021/04/24 02:44:31;;;;;;;;;;;6.40;67.80;;;;;;5050901;28;19992;-87
2021/04/24 02:46:57;;;;;;;;;;;6.30;67.70;;;;;;5050931;28;19964;-86
2021/04/24 02:49:23;;;;;;;;;;;6.40;67.90;;;;;;5050966;28;21458;-87
2021/04/24 02:51:49;;;;;;;;;;;6.30;68.00;;;;;;5048855;28;20003;-86
2021/04/24 02:54:14;;;;;;;;;;;6.30;68.20;;;;;;5050394;28;19913;-86
2021/04/24 02:56:40;;;;;;;;;;;6.30;68.60;;;;;;5049965;28;20579;-86
2021/04/24 02:59:05;;;;;;;;;;;6.30;68.60;;;;;;5036831;28;19913;-85
2021/04/24 03:01:31;;;;;;;;;;;6.30;68.60;;;;;;5050366;28;20368;-86
2021/04/24 03:03:56;;;;;;;;;;;6.30;68.60;;;;;;5043574;28;19913;-87
2021/04/24 03:06:21;;;;;;;;;;;6.30;68.70;;;;;;5050142;28;19909;-86
2021/04/24 03:08:47;;;;;;;;;;;6.30;68.70;;;;;;5051369;28;19974;-87
2021/04/24 03:11:12;;;;;;;;;;;6.30;68.70;;;;;;5050645;28;19952;-86
2021/04/24 03:13:38;;;;;;;;;;;6.30;68.70;;;;;;5057082;28;19968;-88
2021/04/24 03:16:04;;;;;;;;;;;6.30;68.70;;;;;;5046508;28;19921;-86
2021/04/24 03:18:29;;;;;;;;;;;6.30;68.70;;;;;;5048734;28;20399;-88
2021/04/24 03:20:55;;;;;;;;;;;6.30;68.70;;;;;;5050852;28;19979;-88
2021/04/24 03:23:21;;;;;;;;;;;6.30;68.80;;;;;;5041023;28;20028;-88
2021/04/24 03:25:46;;;;;;;;;;;6.30;68.80;;;;;;5046158;28;19913;-87
2021/04/24 03:28:12;;;;;;;;;;;6.20;68.90;;;;;;5051550;28;19909;-86
2021/04/24 03:30:37;;;;;;;;;;;6.20;68.80;;;;;;5048728;28;19917;-87
2021/04/24 03:33:03;;;;;;;;;;;6.20;68.90;;;;;;5051132;28;19936;-88
2021/04/24 03:35:28;;;;;;;;;;;6.20;68.90;;;;;;5050598;28;19920;-88
2021/04/24 03:37:54;;;;;;;;;;;6.20;68.80;;;;;;5051459;28;19983;-88
2021/04/24 03:40:19;;;;;;;;;;;6.20;68.90;;;;;;5046366;28;20399;-87
2021/04/24 03:42:45;;;;;;;;;;;6.20;68.80;;;;;;5035531;28;19913;-87
2021/04/24 03:45:21;;;;;;;;;;;6.20;68.80;;;;;;5050907;28;20307;-88
2021/04/24 03:47:48;;;;;;;;;;;6.20;68.90;;;;;;5049254;28;20378;-87
2021/04/24 03:50:14;;;;;;;;;;;6.20;69.00;;;;;;5046586;28;19923;-88
2021/04/24 03:52:39;;;;;;;;;;;6.10;69.70;;;;;;5036270;28;19917;-88
2021/04/24 03:55:05;;;;;;;;;;;6.10;69.10;;;;;;5050511;28;19920;-88
2021/04/24 03:57:30;;;;;;;;;;;6.10;69.30;;;;;;5050036;28;19912;-87
2021/04/24 03:59:57;;;;;;;;;;;6.10;69.30;;;;;;5043878;28;19913;-86
2021/04/24 04:02:22;;;;;;;;;;;6.10;69.10;;;;;;5048859;28;20248;-87
2021/04/24 04:04:48;;;;;;;;;;;6.10;69.20;;;;;;5044440;28;19915;-87
2021/04/24 04:07:13;;;;;;;;;;;6.10;69.30;;;;;;5049076;28;19936;-88
2021/04/24 04:09:39;;;;;;;;;;;6.10;69.30;;;;;;5051249;28;19977;-89
2021/04/24 04:12:04;;;;;;;;;;;6.10;69.30;;;;;;5058622;28;19908;-89
2021/04/24 04:14:30;;;;;;;;;;;6.00;69.30;;;;;;5051629;28;19924;-89
2021/04/24 04:16:55;;;;;;;;;;;6.00;69.50;;;;;;5050086;28;19956;-90
2021/04/24 04:19:21;;;;;;;;;;;6.00;69.60;;;;;;5053468;28;19916;-89
2021/04/24 04:21:46;;;;;;;;;;;6.00;69.70;;;;;;5055111;28;19909;-88
2021/04/24 04:24:12;;;;;;;;;;;5.90;69.80;;;;;;5054656;28;19959;-88
2021/04/24 04:26:37;;;;;;;;;;;5.90;69.80;;;;;;5041176;28;19914;-87
2021/04/24 04:29:03;;;;;;;;;;;5.90;69.80;;;;;;5055086;28;19913;-89
2021/04/24 04:31:28;;;;;;;;;;;5.90;69.90;;;;;;5053873;28;19916;-88
2021/04/24 04:33:54;;;;;;;;;;;6.00;70.10;;;;;;5054596;28;19982;-88
2021/04/24 04:36:19;;;;;;;;;;;5.90;70.00;;;;;;5055967;28;19968;-89
2021/04/24 04:38:45;;;;;;;;;;;5.90;70.10;;;;;;5054251;28;20520;-88
2021/04/24 04:41:10;;;;;;;;;;;5.90;70.20;;;;;;5052163;28;20003;-88
2021/04/24 04:43:36;;;;;;;;;;;5.90;70.20;;;;;;5054943;28;19916;-87
2021/04/24 04:46:01;;;;;;;;;;;5.90;70.20;;;;;;5054914;28;20012;-90
2021/04/24 04:48:27;;;;;;;;;;;5.90;70.30;;;;;;5054669;28;19936;-86
2021/04/24 04:50:52;;;;;;;;;;;6.00;70.30;;;;;;5053380;28;19929;-88
2021/04/24 04:53:18;;;;;;;;;;;6.00;70.40;;;;;;5051193;28;19920;-88
2021/04/24 04:55:43;;;;;;;;;;;6.00;70.30;;;;;;5053171;28;19929;-89
2021/04/24 04:58:09;;;;;;;;;;;6.00;70.30;;;;;;5041867;28;19925;-90
2021/04/24 05:00:35;;;;;;;;;;;6.00;70.50;;;;;;5044296;28;19909;-90
2021/04/24 05:03:01;;;;;;;;;;;6.10;70.50;;;;;;5052997;28;20003;-87
2021/04/24 05:05:26;;;;;;;;;;;6.20;70.40;;;;;;5053817;28;20009;-88
2021/04/24 05:07:52;;;;;;;;;;;6.30;70.50;;;;;;5053567;28;19916;-88
2021/04/24 05:10:18;;;;;;;;;;;6.30;70.50;;;;;;5032691;28;20006;-88
2021/04/24 05:12:44;;;;;;;;;;;6.40;70.20;;;;;;5043308;28;20382;-88
2021/04/24 05:15:10;;;;;;;;;;;6.50;70.10;;;;;;5051271;28;19920;-87
2021/04/24 05:17:36;;;;;;;;;;;6.50;69.90;;;;;;5052059;28;19916;-87
2021/04/24 05:20:02;;;;;;;;;;;6.60;69.80;;;;;;5052962;28;20429;-87
2021/04/24 05:22:27;;;;;;;;;;;6.60;69.50;;;;;;5051587;28;19920;-87
2021/04/24 05:24:54;;;;;;;;;;;6.70;69.40;;;;;;5051809;28;19916;-86
2021/04/24 05:27:19;;;;;;;;;;;6.80;69.20;;;;;;5048758;28;20195;-88
2021/04/24 05:29:45;;;;;;;;;;;6.90;69.30;;;;;;5048062;28;20004;-88
2021/04/24 05:32:10;;;;;;;;;;;7.50;69.60;;;;;;5051889;28;19958;-87
2021/04/24 05:34:36;;;;;;;;;;;8.40;68.00;;;;;;5053158;28;19948;-87
2021/04/24 05:37:01;;;;;;;;;;;9.10;65.80;;;;;;5050217;28;19928;-87
2021/04/24 05:39:27;;;;;;;;;;;9.80;63.80;;;;;;5052810;28;19908;-87
2021/04/24 05:41:52;;;;;;;;;;;10.50;62.30;;;;;;5049718;28;19913;-87
2021/04/24 05:44:19;;;;;;;;;;;11.00;60.80;;;;;;5051521;28;19920;-87
2021/04/24 05:46:45;;;;;;;;;;;11.60;59.50;;;;;;5049318;28;20431;-87
2021/04/24 05:49:10;;;;;;;;;;;12.30;58.10;;;;;;5052529;28;20008;-88
2021/04/24 05:51:37;;;;;;;;;;;12.80;56.80;;;;;;5052419;28;20340;-87
2021/04/24 05:54:02;;;;;;;;;;;13.60;55.50;;;;;;5051482;28;19920;-88
2021/04/24 05:56:28;;;;;;;;;;;14.40;54.00;;;;;;5048785;28;19921;-88
2021/04/24 05:58:53;;;;;;;;;;;15.10;52.60;;;;;;5047725;28;19913;-86
2021/04/24 06:01:19;;;;;;;;;;;15.50;51.20;;;;;;5043905;28;20299;-87
2021/04/24 06:03:45;;;;;;;;;;;15.40;50.40;;;;;;5044662;28;20395;-88
2021/04/24 06:06:11;;;;;;;;;;;15.70;50.20;;;;;;5046545;28;19983;-88
2021/04/24 06:08:36;;;;;;;;;;;16.10;49.70;;;;;;5046591;28;20401;-89
2021/04/24 06:11:02;;;;;;;;;;;15.90;49.30;;;;;;5043215;28;19913;-90
2021/04/24 06:13:27;;;;;;;;;;;15.80;49.50;;;;;;5045068;28;19913;-86
2021/04/24 06:15:55;;;;;;;;;;;15.60;49.50;;;;;;5044755;28;19917;-87
2021/04/24 06:18:20;;;;;;;;;;;15.10;49.90;;;;;;5034718;28;19913;-89
2021/04/24 06:20:47;;;;;;;;;;;15.20;50.40;;;;;;5050115;28;19987;-86
2021/04/24 06:23:13;;;;;;;;;;;15.90;49.60;;;;;;5052103;28;20020;-86
2021/04/24 06:25:38;;;;;;;;;;;16.60;48.20;;;;;;5050862;28;19940;-88
2021/04/24 06:28:04;;;;;;;;;;;16.30;47.60;;;;;;5043495;28;19983;-88
2021/04/24 06:30:30;;;;;;;;;;;16.40;47.70;;;;;;5039379;28;20382;-88
2021/04/24 06:32:56;;;;;;;;;;;16.30;47.40;;;;;;5048443;28;19912;-89
2021/04/24 06:35:22;;;;;;;;;;;16.50;46.90;;;;;;5042479;28;19943;-89
2021/04/24 06:37:48;;;;;;;;;;;16.70;46.60;;;;;;5045348;28;20015;-88
2021/04/24 06:40:15;;;;;;;;;;;16.90;46.20;;;;;;5042002;28;19914;-88
2021/04/24 06:42:40;;;;;;;;;;;17.20;46.00;;;;;;5043767;28;19917;-86
2021/04/24 06:45:07;;;;;;;;;;;17.30;44.70;;;;;;5043404;28;19939;-86
2021/04/24 06:47:33;;;;;;;;;;;17.20;45.00;;;;;;5048545;28;19990;-86
2021/04/24 06:49:58;;;;;;;;;;;16.80;44.60;;;;;;5041303;28;19913;-90
2021/04/24 06:52:24;;;;;;;;;;;16.80;45.40;;;;;;5039493;28;19913;-86
2021/04/24 06:54:49;;;;;;;;;;;16.70;45.80;;;;;;5043927;28;20295;-87
2021/04/24 06:57:15;;;;;;;;;;;17.60;45.30;;;;;;5044424;28;19927;-84
2021/04/24 06:59:42;;;;;;;;;;;17.80;44.20;;;;;;5039167;28;19912;-86
2021/04/24 07:02:10;;;;;;;;;;;18.10;43.60;;;;;;5042850;28;19921;-84
2021/04/24 07:04:36;;;;;;;;;;;18.30;43.00;;;;;;5040179;28;19920;-83
2021/04/24 07:07:01;;;;;;;;;;;17.80;43.20;;;;;;5040528;28;19913;-86
2021/04/24 07:09:26;;;;;;;;;;;17.60;43.70;;;;;;5045780;28;19913;-87
2021/04/24 07:11:52;;;;;;;;;;;17.70;43.70;;;;;;5043713;28;19929;-87
2021/04/24 07:14:18;;;;;;;;;;;17.80;43.20;;;;;;5043682;28;19942;-88
2021/04/24 07:16:43;;;;;;;;;;;17.80;43.00;;;;;;5042606;28;19925;-88
2021/04/24 07:19:09;;;;;;;;;;;18.50;42.40;;;;;;5038859;28;20370;-88
2021/04/24 07:21:34;;;;;;;;;;;19.10;41.40;;;;;;5043400;28;19919;-89
2021/04/24 07:24:00;;;;;;;;;;;19.70;40.40;;;;;;5044475;28;19932;-90
2021/04/24 07:26:25;;;;;;;;;;;19.40;38.40;;;;;;5045735;28;20019;-88
2021/04/24 07:28:51;;;;;;;;;;;19.80;38.40;;;;;;5046649;28;20384;-88
2021/04/24 07:31:17;;;;;;;;;;;19.60;37.20;;;;;;5045589;28;19967;-89
2021/04/24 07:33:42;;;;;;;;;;;19.80;37.10;;;;;;5044879;28;19939;-89
2021/04/24 07:36:08;;;;;;;;;;;20.00;37.10;;;;;;5046173;28;19929;-88
2021/04/24 07:38:33;;;;;;;;;;;20.30;36.60;;;;;;5044351;28;19995;-90
2021/04/24 07:40:59;;;;;;;;;;;20.50;36.20;;;;;;5044210;28;19917;-92
2021/04/24 07:43:24;;;;;;;;;;;20.20;36.10;;;;;;5041957;28;19913;-91
2021/04/24 07:45:50;;;;;;;;;;;19.80;36.30;;;;;;5040329;28;20392;-89
2021/04/24 07:48:15;;;;;;;;;;;19.40;36.20;;;;;;5042552;28;20057;-84
2021/04/24 07:50:41;;;;;;;;;;;19.00;35.90;;;;;;5040964;28;19932;-90
2021/04/24 07:53:06;;;;;;;;;;;18.20;36.60;;;;;;5049252;28;20330;-88
2021/04/24 07:55:32;;;;;;;;;;;17.90;38.00;;;;;;5041960;28;20008;-86
2021/04/24 07:57:58;;;;;;;;;;;18.40;37.50;;;;;;5043474;28;19925;-88
2021/04/24 08:00:23;;;;;;;;;;;18.30;37.20;;;;;;5044347;28;19924;-87
2021/04/24 08:02:49;;;;;;;;;;;18.30;37.50;;;;;;5040248;28;20379;-86
2021/04/24 08:05:17;;;;;;;;;;;18.10;37.50;;;;;;5037695;28;20004;-85
2021/04/24 08:07:46;;;;;;;;;;;18.00;38.00;;;;;;5039624;28;19966;-85
2021/04/24 08:10:12;;;;;;;;;;;17.70;38.00;;;;;;5045847;28;19919;-89
2021/04/24 08:12:38;;;;;;;;;;;17.40;38.60;;;;;;5044504;28;20019;-90
2021/04/24 08:15:07;;;;;;;;;;;17.30;38.70;;;;;;5050156;28;20007;-90
2021/04/24 08:17:33;;;;;;;;;;;16.80;38.30;;;;;;5045612;28;19932;-86
2021/04/24 08:19:59;;;;;;;;;;;16.50;39.30;;;;;;5047927;28;19912;-85
2021/04/24 08:22:24;;;;;;;;;;;16.20;39.90;;;;;;5044435;28;19964;-85
2021/04/24 08:24:50;;;;;;;;;;;15.60;39.40;;;;;;5035839;28;19917;-83
2021/04/24 08:27:15;;;;;;;;;;;14.80;40.50;;;;;;5043860;28;19913;-84
2021/04/24 08:29:41;;;;;;;;;;;13.90;41.80;;;;;;5042470;28;19970;-85
2021/04/24 08:32:08;;;;;;;;;;;13.30;43.10;;;;;;5048314;28;19913;-84
2021/04/24 08:34:34;;;;;;;;;;;13.10;44.40;;;;;;5048229;28;19940;-86
2021/04/24 08:36:59;;;;;;;;;;;13.20;44.70;;;;;;5044864;28;19925;-86
2021/04/24 08:39:25;;;;;;;;;;;13.30;44.70;;;;;;5041465;28;19920;-91
2021/04/24 08:41:50;;;;;;;;;;;13.50;44.70;;;;;;5057540;28;19909;-91
2021/04/24 08:44:17;;;;;;;;;;;13.60;44.70;;;;;;5052716;28;19913;-91
2021/04/24 08:46:52;;;;;;;;;;;13.70;44.60;;;;;;5053381;28;19923;-91
2021/04/24 08:49:18;;;;;;;;;;;13.70;43.10;;;;;;5051921;28;19912;-91
2021/04/24 08:51:45;;;;;;;;;;;13.40;44.00;;;;;;5049496;28;19913;-89
2021/04/24 08:54:11;;;;;;;;;;;13.30;43.60;;;;;;5046074;28;19935;-90
2021/04/24 08:56:37;;;;;;;;;;;13.20;43.60;;;;;;5047661;28;20360;-90
2021/04/24 08:59:02;;;;;;;;;;;13.20;44.10;;;;;;5046625;28;19971;-90
2021/04/24 09:01:30;;;;;;;;;;;13.30;44.30;;;;;;5050007;28;19913;-90
2021/04/24 09:03:57;;;;;;;;;;;13.30;44.50;;;;;;5051393;28;19913;-93
2021/04/24 09:06:23;;;;;;;;;;;13.40;44.40;;;;;;5037553;28;19914;-92
2021/04/24 09:08:56;;;;;;;;;;;13.40;44.20;;;;;;5052160;28;19912;-95
2021/04/24 09:11:23;;;;;;;;;;;13.50;44.20;;;;;;5054892;28;19966;-93
2021/04/24 09:14:03;;;;;;;;;;;13.40;44.00;;;;;;5050072;28;20004;-93
2021/04/24 09:16:33;;;;;;;;;;;13.40;44.30;;;;;;5047611;28;19975;-93
2021/04/24 09:19:00;;;;;;;;;;;13.50;45.10;;;;;;5060714;28;20324;-92
2021/04/24 09:21:27;;;;;;;;;;;13.60;44.50;;;;;;5054520;28;19971;-92
2021/04/24 09:23:52;;;;;;;;;;;13.50;44.00;;;;;;5055700;28;19909;-91
2021/04/24 09:26:23;;;;;;;;;;;13.60;43.80;;;;;;5052918;28;19919;-91
2021/04/24 09:29:10;;;;;;;;;;;13.60;43.40;;;;;;5046868;28;19975;-92
2021/04/24 09:31:37;;;;;;;;;;;13.50;43.40;;;;;;5051764;28;19913;-90
2021/04/24 09:34:03;;;;;;;;;;;13.50;43.30;;;;;;5052191;28;19913;-90
2021/04/24 09:36:34;;;;;;;;;;;13.60;43.30;;;;;;5043102;28;20382;-86
2021/04/24 09:39:01;;;;;;;;;;;13.70;43.10;;;;;;5053157;28;19916;-91
2021/04/24 09:41:33;;;;;;;;;;;13.80;42.50;;;;;;5057673;28;19977;-94
2021/04/24 09:44:16;;;;;;;;;;;13.80;42.70;;;;;;5060561;28;19917;-96
2021/04/24 09:46:46;;;;;;;;;;;13.90;42.00;;;;;;5047532;28;19972;-85
2021/04/24 09:49:14;;;;;;;;;;;13.90;42.30;;;;;;5041897;28;19956;-86
2021/04/24 09:51:54;;;;;;;;;;;14.00;42.10;;;;;;5041643;28;20418;-84
2021/04/24 09:54:22;;;;;;;;;;;14.00;41.20;;;;;;5039143;28;19967;-85
2021/04/24 09:56:55;;;;;;;;;;;14.10;41.10;;;;;;5042486;28;19920;-86
2021/04/24 09:59:21;;;;;;;;;;;14.10;41.10;;;;;;5038057;28;19985;-86
2021/04/24 10:01:47;;;;;;;;;;;14.20;41.00;;;;;;5041977;28;19960;-87
2021/04/24 10:04:15;;;;;;;;;;;14.30;40.70;;;;;;5046058;28;19909;-85
2021/04/24 10:06:41;;;;;;;;;;;14.30;40.70;;;;;;5048472;28;19999;-86
2021/04/24 10:09:11;;;;;;;;;;;14.20;39.60;;;;;;5048135;28;19912;-85
2021/04/24 10:11:37;;;;;;;;;;;14.00;39.70;;;;;;5057133;28;19917;-85
2021/04/24 10:14:03;;;;;;;;;;;14.10;40.60;;;;;;5044866;28;19948;-85
2021/04/24 10:16:42;;;;;;;;;;;14.10;40.30;;;;;;5038175;28;19994;-86
2021/04/24 10:19:09;;;;;;;;;;;14.20;40.70;;;;;;5048301;28;19913;-85
2021/04/24 10:21:35;;;;;;;;;;;14.30;41.00;;;;;;5045234;28;19916;-84
2021/04/24 10:24:01;;;;;;;;;;;14.30;41.20;;;;;;5050188;28;19974;-84
2021/04/24 10:26:27;;;;;;;;;;;14.40;41.30;;;;;;5047383;28;19916;-86
2021/04/24 10:28:54;;;;;;;;;;;14.40;41.20;;;;;;5049875;28;19924;-86
2021/04/24 10:31:19;;;;;;;;;;;14.50;40.90;;;;;;5042051;28;20272;-86
2021/04/24 10:33:45;;;;;;;;;;;14.60;40.50;;;;;;5047817;28;19913;-85
2021/04/24 10:36:11;;;;;;;;;;;14.60;37.40;;;;;;5049749;28;19932;-86
2021/04/24 10:38:41;;;;;;;;;;;14.50;37.40;;;;;;5045737;28;19925;-86
2021/04/24 10:41:06;;;;;;;;;;;14.50;37.60;;;;;;5038697;28;19935;-87
2021/04/24 10:43:32;;;;;;;;;;;14.50;38.50;;;;;;5046664;28;20371;-86
2021/04/24 10:46:17;;;;;;;;;;;14.50;36.10;;;;;;5049468;28;20379;-86
2021/04/24 10:48:43;;;;;;;;;;;14.20;36.90;;;;;;5049986;28;19913;-85
2021/04/24 10:51:08;;;;;;;;;;;13.90;37.90;;;;;;5049468;28;19920;-86
2021/04/24 10:53:34;;;;;;;;;;;13.90;38.30;;;;;;5049863;28;20390;-87
2021/04/24 10:56:00;;;;;;;;;;;14.10;38.70;;;;;;5047622;28;19925;-87
2021/04/24 10:58:27;;;;;;;;;;;14.30;38.70;;;;;;5048563;28;19919;-87
2021/04/24 11:01:03;;;;;;;;;;;14.50;38.80;;;;;;5037681;28;19927;-87
2021/04/24 11:03:35;;;;;;;;;;;14.60;39.40;;;;;;5049400;28;20066;-88
2021/04/24 11:06:11;;;;;;;;;;;14.70;39.20;;;;;;5058783;28;20295;-88
2021/04/24 11:08:37;;;;;;;;;;;14.80;38.70;;;;;;5042030;28;20367;-87
2021/04/24 11:11:04;;;;;;;;;;;14.90;38.60;;;;;;5051436;28;19938;-86
2021/04/24 11:13:34;;;;;;;;;;;15.00;38.70;;;;;;5045842;28;20399;-88
2021/04/24 11:16:02;;;;;;;;;;;14.90;38.20;;;;;;5041715;28;19925;-87
2021/04/24 11:18:28;;;;;;;;;;;14.90;38.60;;;;;;5050850;28;19917;-86
2021/04/24 11:20:55;;;;;;;;;;;14.80;38.20;;;;;;5044587;28;19913;-86
2021/04/24 11:23:30;;;;;;;;;;;14.80;38.10;;;;;;5032512;28;19921;-86
2021/04/24 11:26:05;;;;;;;;;;;14.60;37.90;;;;;;5046966;28;19913;-86
2021/04/24 11:28:31;;;;;;;;;;;14.60;38.40;;;;;;5047658;28;19913;-85
2021/04/24 11:31:01;;;;;;;;;;;14.70;38.30;;;;;;5037917;28;20368;-87
2021/04/24 11:33:45;;;;;;;;;;;14.90;38.40;;;;;;5038244;28;19917;-86
2021/04/24 11:36:17;;;;;;;;;;;15.00;38.50;;;;;;5036409;28;19947;-87
2021/04/24 11:38:58;;;;;;;;;;;15.10;38.30;;;;;;5039687;28;19913;-87
2021/04/24 11:41:26;;;;;;;;;;;15.00;37.40;;;;;;5039037;28;19966;-87
2021/04/24 11:43:52;;;;;;;;;;;14.90;37.50;;;;;;5049223;28;19913;-92
2021/04/24 11:46:38;;;;;;;;;;;14.90;37.80;;;;;;5042902;28;20020;-91
2021/04/24 11:49:05;;;;;;;;;;;15.00;38.20;;;;;;5043868;28;19955;-92
2021/04/24 11:51:43;;;;;;;;;;;15.00;37.90;;;;;;5046949;28;19928;-90
2021/04/24 11:54:11;;;;;;;;;;;14.90;38.50;;;;;;5042984;28;20056;-88
2021/04/24 11:56:37;;;;;;;;;;;14.90;39.30;;;;;;5041026;28;19943;-91
2021/04/24 11:59:03;;;;;;;;;;;15.00;39.40;;;;;;5044457;28;19917;-91
2021/04/24 12:01:29;;;;;;;;;;;15.10;39.70;;;;;;5047826;28;20330;-91
2021/04/24 12:03:55;;;;;;;;;;;15.20;39.70;;;;;;5043174;28;20004;-91
2021/04/24 12:06:35;;;;;;;;;;;15.40;39.70;;;;;;5046669;28;20333;-92
2021/04/24 12:09:03;;;;;;;;;;;15.40;39.40;;;;;;5042647;28;19920;-91
2021/04/24 12:11:29;;;;;;;;;;;15.30;39.40;;;;;;5047326;28;19917;-92
2021/04/24 12:13:54;;;;;;;;;;;15.10;39.30;;;;;;5047976;28;19924;-94
2021/04/24 12:16:51;;;;;;;;;;;15.10;39.90;;;;;;5046643;28;19931;-92
2021/04/24 12:19:23;;;;;;;;;;;14.90;40.30;;;;;;5060405;28;20283;-93
2021/04/24 12:22:19;;;;;;;;;;;14.90;41.00;;;;;;5048714;28;20276;-93
2021/04/24 12:24:51;;;;;;;;;;;14.90;41.20;;;;;;5045884;28;20267;-92
2021/04/24 12:27:21;;;;;;;;;;;14.90;41.30;;;;;;5043293;28;19913;-93
2021/04/24 12:29:49;;;;;;;;;;;15.00;41.50;;;;;;5045377;28;19909;-92
2021/04/24 12:32:15;;;;;;;;;;;14.90;41.50;;;;;;5052326;28;19982;-96
2021/04/24 12:34:41;;;;;;;;;;;14.60;42.30;;;;;;5053748;28;19916;-96
2021/04/24 12:37:09;;;;;;;;;;;14.60;42.20;;;;;;5051926;28;19920;-96
2021/04/24 12:39:41;;;;;;;;;;;14.70;42.00;;;;;;5050045;28;19913;-92
2021/04/24 12:42:10;;;;;;;;;;;14.90;41.80;;;;;;5047029;28;20028;-90
2021/04/24 12:44:37;;;;;;;;;;;15.00;41.60;;;;;;5046789;28;19921;-89
2021/04/24 12:47:02;;;;;;;;;;;15.20;41.30;;;;;;5041238;28;21652;-89
2021/04/24 12:49:28;;;;;;;;;;;15.20;41.10;;;;;;5042029;28;20001;-90
2021/04/24 12:51:59;;;;;;;;;;;15.20;41.10;;;;;;5044155;28;19978;-89
2021/04/24 12:54:25;;;;;;;;;;;15.20;41.20;;;;;;5042032;28;19951;-89
2021/04/24 12:56:50;;;;;;;;;;;15.20;41.20;;;;;;5049812;28;19920;-88
2021/04/24 12:59:21;;;;;;;;;;;15.20;41.10;;;;;;5043144;28;19913;-91
2021/04/24 13:01:50;;;;;;;;;;;15.20;41.40;;;;;;5045065;28;19913;-91
2021/04/24 13:04:18;;;;;;;;;;;15.10;41.40;;;;;;5041540;28;19913;-90
2021/04/24 13:06:53;;;;;;;;;;;15.10;41.30;;;;;;5041846;28;19921;-89
2021/04/24 13:09:20;;;;;;;;;;;15.10;41.40;;;;;;5040669;28;19909;-89
2021/04/24 13:11:54;;;;;;;;;;;15.30;41.30;;;;;;5044014;28;19916;-90
2021/04/24 13:14:24;;;;;;;;;;;15.40;41.20;;;;;;5044435;28;20006;-91
2021/04/24 13:16:50;;;;;;;;;;;15.40;40.90;;;;;;5046484;28;19925;-89
2021/04/24 13:19:16;;;;;;;;;;;15.50;41.00;;;;;;5046865;28;20425;-89
2021/04/24 13:21:43;;;;;;;;;;;15.60;40.40;;;;;;5048094;28;20423;-89
2021/04/24 13:24:13;;;;;;;;;;;15.50;40.30;;;;;;5040154;28;19909;-89
2021/04/24 13:26:55;;;;;;;;;;;15.50;40.10;;;;;;5048604;28;19920;-89
2021/04/24 13:29:25;;;;;;;;;;;15.70;40.40;;;;;;5066063;28;19988;-91
2021/04/24 13:31:59;;;;;;;;;;;15.80;40.20;;;;;;5043026;28;19927;-89
2021/04/24 13:34:25;;;;;;;;;;;15.80;40.00;;;;;;5050577;28;19916;-91
2021/04/24 13:36:51;;;;;;;;;;;15.70;39.70;;;;;;5040686;28;20295;-90
2021/04/24 13:39:16;;;;;;;;;;;15.70;39.70;;;;;;5043260;28;20020;-93
2021/04/24 13:41:43;;;;;;;;;;;15.70;39.60;;;;;;5041082;28;20011;-91
2021/04/24 13:44:14;;;;;;;;;;;15.70;38.90;;;;;;5042471;28;19944;-92
2021/04/24 13:46:49;;;;;;;;;;;15.50;38.20;;;;;;5043858;28;20112;-93
2021/04/24 13:49:18;;;;;;;;;;;15.40;39.00;;;;;;5051186;28;19955;-91
2021/04/24 13:51:45;;;;;;;;;;;15.10;38.20;;;;;;5050463;28;19992;-92
2021/04/24 13:54:10;;;;;;;;;;;15.20;38.80;;;;;;5053834;28;19920;-92
2021/04/24 13:56:36;;;;;;;;;;;15.20;38.90;;;;;;5052302;28;20479;-91
2021/04/24 13:59:05;;;;;;;;;;;15.30;39.00;;;;;;5050239;28;20276;-91
2021/04/24 14:01:31;;;;;;;;;;;15.40;39.00;;;;;;5046055;28;20462;-90
2021/04/24 14:03:56;;;;;;;;;;;15.50;38.70;;;;;;5054126;28;19915;-92
2021/04/24 14:06:21;;;;;;;;;;;15.50;38.70;;;;;;5053568;28;19923;-90
2021/04/24 14:08:47;;;;;;;;;;;15.40;38.40;;;;;;5054676;28;19913;-92
2021/04/24 14:11:12;;;;;;;;;;;15.30;37.80;;;;;;5056009;28;20399;-91
2021/04/24 14:13:38;;;;;;;;;;;15.10;37.90;;;;;;5051742;28;19908;-92
2021/04/24 14:16:11;;;;;;;;;;;15.10;38.60;;;;;;5050504;28;19936;-92
2021/04/24 14:18:37;;;;;;;;;;;15.20;38.60;;;;;;5054243;28;19913;-92
2021/04/24 14:21:03;;;;;;;;;;;15.30;38.60;;;;;;5051954;28;19939;-90